sensor_id;sensor_type;location;lat;lon;timestamp;P1;durP1;ratioP1;P2;durP2;ratioP2
39094;SDS011;24840;47.508;19.376;2024-03-25T00:01:33;6.03;;;4.70;;
39094;SDS011;24840;47.508;19.376;2024-03-25T00:03:59;4.40;;;3.83;;
39094;SDS011;24840;47.508;19.376;2024-03-25T00:06:25;7.07;;;4.83;;
39094;SDS011;24840;47.508;19.376;2024-03-25T00:08:51;6.50;;;5.07;;
39094;SDS011;24840;47.508;19.376;2024-03-25T00:11:17;6.57;;;4.00;;
39094;SDS011;24840;47.508;19.376;2024-03-25T00:13:43;6.10;;;4.80;;
39094;SDS011;24840;47.508;19.376;2024-03-25T00:16:09;5.40;;;3.87;;
39094;SDS011;24840;47.508;19.376;2024-03-25T00:18:35;7.23;;;4.97;;
39094;SDS011;24840;47.508;19.376;2024-03-25T00:21:01;9.87;;;4.90;;
39094;SDS011;24840;47.508;19.376;2024-03-25T00:23:27;6.37;;;4.87;;
39094;SDS011;24840;47.508;19.376;2024-03-25T00:25:53;6.87;;;4.60;;
39094;SDS011;24840;47.508;19.376;2024-03-25T00:28:19;5.87;;;4.53;;
39094;SDS011;24840;47.508;19.376;2024-03-25T00:30:45;5.97;;;4.77;;
39094;SDS011;24840;47.508;19.376;2024-03-25T00:33:11;5.00;;;4.43;;
39094;SDS011;24840;47.508;19.376;2024-03-25T00:35:37;7.87;;;4.87;;
39094;SDS011;24840;47.508;19.376;2024-03-25T00:38:03;5.93;;;4.67;;
39094;SDS011;24840;47.508;19.376;2024-03-25T00:40:30;7.10;;;4.67;;
39094;SDS011;24840;47.508;19.376;2024-03-25T00:42:56;5.23;;;4.17;;
39094;SDS011;24840;47.508;19.376;2024-03-25T00:45:22;5.43;;;4.67;;
39094;SDS011;24840;47.508;19.376;2024-03-25T00:47:50;5.50;;;4.27;;
39094;SDS011;24840;47.508;19.376;2024-03-25T00:50:16;4.93;;;4.00;;
39094;SDS011;24840;47.508;19.376;2024-03-25T00:52:42;5.60;;;4.17;;
39094;SDS011;24840;47.508;19.376;2024-03-25T00:55:08;6.57;;;4.77;;
39094;SDS011;24840;47.508;19.376;2024-03-25T00:57:34;5.00;;;4.20;;
39094;SDS011;24840;47.508;19.376;2024-03-25T01:00:00;6.97;;;3.87;;
39094;SDS011;24840;47.508;19.376;2024-03-25T01:02:28;7.40;;;4.03;;
39094;SDS011;24840;47.508;19.376;2024-03-25T01:04:54;4.87;;;3.47;;
39094;SDS011;24840;47.508;19.376;2024-03-25T01:07:21;5.97;;;4.23;;
39094;SDS011;24840;47.508;19.376;2024-03-25T01:09:47;5.90;;;4.37;;
39094;SDS011;24840;47.508;19.376;2024-03-25T01:12:13;5.23;;;3.40;;
39094;SDS011;24840;47.508;19.376;2024-03-25T01:14:40;4.70;;;3.30;;
39094;SDS011;24840;47.508;19.376;2024-03-25T01:17:06;5.27;;;3.27;;
39094;SDS011;24840;47.508;19.376;2024-03-25T01:19:33;4.77;;;3.73;;
39094;SDS011;24840;47.508;19.376;2024-03-25T01:21:59;5.93;;;4.10;;
39094;SDS011;24840;47.508;19.376;2024-03-25T01:24:25;5.60;;;3.50;;
39094;SDS011;24840;47.508;19.376;2024-03-25T01:26:51;5.00;;;3.50;;
39094;SDS011;24840;47.508;19.376;2024-03-25T01:29:17;6.77;;;3.40;;
39094;SDS011;24840;47.508;19.376;2024-03-25T01:31:43;4.80;;;3.40;;
39094;SDS011;24840;47.508;19.376;2024-03-25T01:34:09;4.47;;;3.37;;
39094;SDS011;24840;47.508;19.376;2024-03-25T01:36:35;4.80;;;3.70;;
39094;SDS011;24840;47.508;19.376;2024-03-25T01:39:02;5.93;;;3.87;;
39094;SDS011;24840;47.508;19.376;2024-03-25T01:41:30;4.93;;;3.87;;
39094;SDS011;24840;47.508;19.376;2024-03-25T01:43:56;4.67;;;3.03;;
39094;SDS011;24840;47.508;19.376;2024-03-25T01:46:22;3.93;;;2.70;;
39094;SDS011;24840;47.508;19.376;2024-03-25T01:48:48;4.83;;;3.07;;
39094;SDS011;24840;47.508;19.376;2024-03-25T01:51:16;5.23;;;3.30;;
39094;SDS011;24840;47.508;19.376;2024-03-25T01:53:43;4.60;;;2.67;;
39094;SDS011;24840;47.508;19.376;2024-03-25T01:56:10;4.90;;;2.97;;
39094;SDS011;24840;47.508;19.376;2024-03-25T01:58:36;3.87;;;2.53;;
39094;SDS011;24840;47.508;19.376;2024-03-25T02:01:02;4.90;;;3.10;;
39094;SDS011;24840;47.508;19.376;2024-03-25T02:03:29;4.40;;;2.40;;
39094;SDS011;24840;47.508;19.376;2024-03-25T02:05:57;2.57;;;2.37;;
39094;SDS011;24840;47.508;19.376;2024-03-25T02:08:23;3.97;;;2.63;;
39094;SDS011;24840;47.508;19.376;2024-03-25T02:10:49;4.83;;;2.90;;
39094;SDS011;24840;47.508;19.376;2024-03-25T02:13:16;4.30;;;2.73;;
39094;SDS011;24840;47.508;19.376;2024-03-25T02:15:42;5.50;;;2.47;;
39094;SDS011;24840;47.508;19.376;2024-03-25T02:18:08;5.27;;;2.93;;
39094;SDS011;24840;47.508;19.376;2024-03-25T02:20:34;2.67;;;2.00;;
39094;SDS011;24840;47.508;19.376;2024-03-25T02:23:01;3.47;;;2.10;;
39094;SDS011;24840;47.508;19.376;2024-03-25T02:25:27;5.60;;;2.30;;
39094;SDS011;24840;47.508;19.376;2024-03-25T02:27:53;3.13;;;2.20;;
39094;SDS011;24840;47.508;19.376;2024-03-25T02:30:19;4.37;;;2.20;;
39094;SDS011;24840;47.508;19.376;2024-03-25T02:32:45;3.23;;;1.93;;
39094;SDS011;24840;47.508;19.376;2024-03-25T02:35:13;2.37;;;1.53;;
39094;SDS011;24840;47.508;19.376;2024-03-25T02:37:40;2.77;;;2.00;;
39094;SDS011;24840;47.508;19.376;2024-03-25T02:40:07;3.20;;;2.20;;
39094;SDS011;24840;47.508;19.376;2024-03-25T02:42:36;2.87;;;2.17;;
39094;SDS011;24840;47.508;19.376;2024-03-25T02:45:04;3.53;;;2.03;;
39094;SDS011;24840;47.508;19.376;2024-03-25T02:47:31;3.57;;;2.23;;
39094;SDS011;24840;47.508;19.376;2024-03-25T02:49:57;2.53;;;1.40;;
39094;SDS011;24840;47.508;19.376;2024-03-25T02:52:24;3.60;;;2.30;;
39094;SDS011;24840;47.508;19.376;2024-03-25T02:54:51;3.50;;;1.63;;
39094;SDS011;24840;47.508;19.376;2024-03-25T02:57:17;2.53;;;1.57;;
39094;SDS011;24840;47.508;19.376;2024-03-25T02:59:43;3.00;;;1.80;;
39094;SDS011;24840;47.508;19.376;2024-03-25T03:02:09;2.50;;;1.50;;
39094;SDS011;24840;47.508;19.376;2024-03-25T03:04:34;3.00;;;1.80;;
39094;SDS011;24840;47.508;19.376;2024-03-25T03:07:00;2.30;;;1.57;;
39094;SDS011;24840;47.508;19.376;2024-03-25T03:09:26;4.63;;;1.43;;
39094;SDS011;24840;47.508;19.376;2024-03-25T03:11:52;1.27;;;0.90;;
39094;SDS011;24840;47.508;19.376;2024-03-25T03:14:19;3.87;;;1.93;;
39094;SDS011;24840;47.508;19.376;2024-03-25T03:16:45;2.70;;;1.70;;
39094;SDS011;24840;47.508;19.376;2024-03-25T03:19:10;2.87;;;1.53;;
39094;SDS011;24840;47.508;19.376;2024-03-25T03:21:36;3.30;;;1.50;;
39094;SDS011;24840;47.508;19.376;2024-03-25T03:24:03;2.77;;;1.70;;
39094;SDS011;24840;47.508;19.376;2024-03-25T03:26:29;6.00;;;1.50;;
39094;SDS011;24840;47.508;19.376;2024-03-25T03:28:58;1.97;;;1.40;;
39094;SDS011;24840;47.508;19.376;2024-03-25T03:31:25;2.07;;;1.67;;
39094;SDS011;24840;47.508;19.376;2024-03-25T03:33:52;2.83;;;1.60;;
39094;SDS011;24840;47.508;19.376;2024-03-25T03:36:19;2.50;;;1.80;;
39094;SDS011;24840;47.508;19.376;2024-03-25T03:38:45;7.37;;;1.97;;
39094;SDS011;24840;47.508;19.376;2024-03-25T03:41:11;4.50;;;1.80;;
39094;SDS011;24840;47.508;19.376;2024-03-25T03:43:38;2.10;;;1.80;;
39094;SDS011;24840;47.508;19.376;2024-03-25T03:46:04;2.00;;;1.67;;
39094;SDS011;24840;47.508;19.376;2024-03-25T03:48:31;3.03;;;1.83;;
39094;SDS011;24840;47.508;19.376;2024-03-25T03:50:57;2.37;;;1.50;;
39094;SDS011;24840;47.508;19.376;2024-03-25T03:53:23;2.63;;;1.90;;
39094;SDS011;24840;47.508;19.376;2024-03-25T03:55:53;2.73;;;1.67;;
39094;SDS011;24840;47.508;19.376;2024-03-25T03:58:19;2.27;;;1.50;;
39094;SDS011;24840;47.508;19.376;2024-03-25T04:00:45;3.87;;;1.93;;
39094;SDS011;24840;47.508;19.376;2024-03-25T04:03:11;3.57;;;1.83;;
39094;SDS011;24840;47.508;19.376;2024-03-25T04:05:37;1.77;;;1.37;;
39094;SDS011;24840;47.508;19.376;2024-03-25T04:08:03;2.10;;;1.70;;
39094;SDS011;24840;47.508;19.376;2024-03-25T04:10:29;3.53;;;1.80;;
39094;SDS011;24840;47.508;19.376;2024-03-25T04:12:55;2.60;;;1.50;;
39094;SDS011;24840;47.508;19.376;2024-03-25T04:15:22;3.50;;;1.27;;
39094;SDS011;24840;47.508;19.376;2024-03-25T04:17:48;1.73;;;1.40;;
39094;SDS011;24840;47.508;19.376;2024-03-25T04:20:14;2.63;;;1.77;;
39094;SDS011;24840;47.508;19.376;2024-03-25T04:22:41;3.03;;;2.17;;
39094;SDS011;24840;47.508;19.376;2024-03-25T04:25:08;2.30;;;1.90;;
39094;SDS011;24840;47.508;19.376;2024-03-25T04:27:36;3.47;;;2.17;;
39094;SDS011;24840;47.508;19.376;2024-03-25T04:30:02;2.17;;;1.40;;
39094;SDS011;24840;47.508;19.376;2024-03-25T04:32:28;5.73;;;1.97;;
39094;SDS011;24840;47.508;19.376;2024-03-25T04:34:54;4.13;;;2.90;;
39094;SDS011;24840;47.508;19.376;2024-03-25T04:37:20;2.00;;;1.50;;
39094;SDS011;24840;47.508;19.376;2024-03-25T04:39:46;2.13;;;1.63;;
39094;SDS011;24840;47.508;19.376;2024-03-25T04:42:12;2.13;;;1.90;;
39094;SDS011;24840;47.508;19.376;2024-03-25T04:44:38;3.80;;;2.20;;
39094;SDS011;24840;47.508;19.376;2024-03-25T04:47:04;2.50;;;1.70;;
39094;SDS011;24840;47.508;19.376;2024-03-25T04:49:30;3.20;;;2.33;;
39094;SDS011;24840;47.508;19.376;2024-03-25T04:51:56;4.37;;;1.77;;
39094;SDS011;24840;47.508;19.376;2024-03-25T04:54:22;3.40;;;1.83;;
39094;SDS011;24840;47.508;19.376;2024-03-25T04:56:48;2.60;;;1.87;;
39094;SDS011;24840;47.508;19.376;2024-03-25T04:59:14;2.37;;;1.63;;
39094;SDS011;24840;47.508;19.376;2024-03-25T05:01:40;3.27;;;2.03;;
39094;SDS011;24840;47.508;19.376;2024-03-25T05:04:06;3.33;;;2.00;;
39094;SDS011;24840;47.508;19.376;2024-03-25T05:06:34;3.60;;;2.43;;
39094;SDS011;24840;47.508;19.376;2024-03-25T05:09:00;3.67;;;2.23;;
39094;SDS011;24840;47.508;19.376;2024-03-25T05:11:26;2.40;;;1.70;;
39094;SDS011;24840;47.508;19.376;2024-03-25T05:13:52;3.47;;;2.27;;
39094;SDS011;24840;47.508;19.376;2024-03-25T05:16:18;2.40;;;1.83;;
39094;SDS011;24840;47.508;19.376;2024-03-25T05:18:44;5.47;;;2.20;;
39094;SDS011;24840;47.508;19.376;2024-03-25T05:21:10;2.17;;;1.63;;
39094;SDS011;24840;47.508;19.376;2024-03-25T05:23:36;2.67;;;2.10;;
39094;SDS011;24840;47.508;19.376;2024-03-25T05:26:02;4.10;;;1.67;;
39094;SDS011;24840;47.508;19.376;2024-03-25T05:28:28;2.77;;;2.10;;
39094;SDS011;24840;47.508;19.376;2024-03-25T05:30:54;2.90;;;2.23;;
39094;SDS011;24840;47.508;19.376;2024-03-25T05:33:20;3.33;;;2.57;;
39094;SDS011;24840;47.508;19.376;2024-03-25T05:35:46;2.53;;;2.13;;
39094;SDS011;24840;47.508;19.376;2024-03-25T05:38:12;2.40;;;2.20;;
39094;SDS011;24840;47.508;19.376;2024-03-25T05:40:38;5.00;;;2.20;;
39094;SDS011;24840;47.508;19.376;2024-03-25T05:43:04;3.60;;;1.73;;
39094;SDS011;24840;47.508;19.376;2024-03-25T05:45:30;2.33;;;1.90;;
39094;SDS011;24840;47.508;19.376;2024-03-25T05:47:56;3.40;;;2.17;;
39094;SDS011;24840;47.508;19.376;2024-03-25T05:50:22;2.57;;;2.17;;
39094;SDS011;24840;47.508;19.376;2024-03-25T05:52:48;3.33;;;2.00;;
39094;SDS011;24840;47.508;19.376;2024-03-25T05:55:14;1.80;;;1.40;;
39094;SDS011;24840;47.508;19.376;2024-03-25T05:57:40;3.33;;;2.30;;
39094;SDS011;24840;47.508;19.376;2024-03-25T06:00:06;3.77;;;2.00;;
39094;SDS011;24840;47.508;19.376;2024-03-25T06:02:33;2.60;;;1.90;;
39094;SDS011;24840;47.508;19.376;2024-03-25T06:04:59;5.33;;;2.77;;
39094;SDS011;24840;47.508;19.376;2024-03-25T06:07:25;3.13;;;2.43;;
39094;SDS011;24840;47.508;19.376;2024-03-25T06:09:50;3.70;;;2.43;;
39094;SDS011;24840;47.508;19.376;2024-03-25T06:12:16;2.23;;;1.63;;
39094;SDS011;24840;47.508;19.376;2024-03-25T06:14:42;6.73;;;2.13;;
39094;SDS011;24840;47.508;19.376;2024-03-25T06:17:09;4.10;;;2.47;;
39094;SDS011;24840;47.508;19.376;2024-03-25T06:19:35;4.17;;;1.97;;
39094;SDS011;24840;47.508;19.376;2024-03-25T06:22:01;4.40;;;2.00;;
39094;SDS011;24840;47.508;19.376;2024-03-25T06:24:27;4.47;;;2.60;;
39094;SDS011;24840;47.508;19.376;2024-03-25T06:26:53;4.00;;;3.07;;
39094;SDS011;24840;47.508;19.376;2024-03-25T06:29:19;2.97;;;2.03;;
39094;SDS011;24840;47.508;19.376;2024-03-25T06:31:47;6.93;;;3.37;;
39094;SDS011;24840;47.508;19.376;2024-03-25T06:34:35;7.63;;;3.10;;
39094;SDS011;24840;47.508;19.376;2024-03-25T06:37:04;3.77;;;2.43;;
39094;SDS011;24840;47.508;19.376;2024-03-25T06:39:30;3.73;;;2.43;;
39094;SDS011;24840;47.508;19.376;2024-03-25T06:41:56;3.43;;;1.90;;
39094;SDS011;24840;47.508;19.376;2024-03-25T06:44:22;8.83;;;2.67;;
39094;SDS011;24840;47.508;19.376;2024-03-25T06:46:49;5.00;;;2.17;;
39094;SDS011;24840;47.508;19.376;2024-03-25T06:49:16;3.57;;;2.20;;
39094;SDS011;24840;47.508;19.376;2024-03-25T06:51:42;2.20;;;1.47;;
39094;SDS011;24840;47.508;19.376;2024-03-25T06:54:08;3.17;;;1.80;;
39094;SDS011;24840;47.508;19.376;2024-03-25T06:56:34;2.37;;;1.50;;
39094;SDS011;24840;47.508;19.376;2024-03-25T06:59:00;4.07;;;2.30;;
39094;SDS011;24840;47.508;19.376;2024-03-25T07:01:26;3.43;;;1.87;;
39094;SDS011;24840;47.508;19.376;2024-03-25T07:03:52;2.97;;;2.13;;
39094;SDS011;24840;47.508;19.376;2024-03-25T07:06:19;4.40;;;1.77;;
39094;SDS011;24840;47.508;19.376;2024-03-25T07:08:45;3.93;;;1.70;;
39094;SDS011;24840;47.508;19.376;2024-03-25T07:11:13;5.97;;;2.20;;
39094;SDS011;24840;47.508;19.376;2024-03-25T07:13:39;3.60;;;1.77;;
39094;SDS011;24840;47.508;19.376;2024-03-25T07:16:05;2.70;;;1.27;;
39094;SDS011;24840;47.508;19.376;2024-03-25T07:18:33;1.70;;;1.30;;
39094;SDS011;24840;47.508;19.376;2024-03-25T07:20:59;6.33;;;1.10;;
39094;SDS011;24840;47.508;19.376;2024-03-25T07:23:25;2.43;;;0.90;;
39094;SDS011;24840;47.508;19.376;2024-03-25T07:25:51;1.97;;;1.20;;
39094;SDS011;24840;47.508;19.376;2024-03-25T07:28:17;1.53;;;0.93;;
39094;SDS011;24840;47.508;19.376;2024-03-25T07:30:43;2.20;;;1.43;;
39094;SDS011;24840;47.508;19.376;2024-03-25T07:33:09;1.37;;;1.17;;
39094;SDS011;24840;47.508;19.376;2024-03-25T07:35:35;2.40;;;1.40;;
39094;SDS011;24840;47.508;19.376;2024-03-25T07:38:01;3.13;;;1.20;;
39094;SDS011;24840;47.508;19.376;2024-03-25T07:40:28;2.05;;;1.08;;
39094;SDS011;24840;47.508;19.376;2024-03-25T07:42:54;2.08;;;0.80;;
39094;SDS011;24840;47.508;19.376;2024-03-25T07:45:21;1.83;;;1.30;;
39094;SDS011;24840;47.508;19.376;2024-03-25T07:47:48;2.70;;;1.08;;
39094;SDS011;24840;47.508;19.376;2024-03-25T07:50:14;2.30;;;0.98;;
39094;SDS011;24840;47.508;19.376;2024-03-25T07:52:40;3.00;;;1.35;;
39094;SDS011;24840;47.508;19.376;2024-03-25T07:55:09;3.35;;;1.23;;
39094;SDS011;24840;47.508;19.376;2024-03-25T07:57:35;2.60;;;1.33;;
39094;SDS011;24840;47.508;19.376;2024-03-25T08:00:01;2.28;;;0.77;;
39094;SDS011;24840;47.508;19.376;2024-03-25T08:02:30;2.15;;;0.77;;
39094;SDS011;24840;47.508;19.376;2024-03-25T08:04:56;1.73;;;0.82;;
39094;SDS011;24840;47.508;19.376;2024-03-25T08:07:22;1.77;;;1.15;;
39094;SDS011;24840;47.508;19.376;2024-03-25T08:09:49;1.45;;;0.82;;
39094;SDS011;24840;47.508;19.376;2024-03-25T08:12:15;2.00;;;0.90;;
39094;SDS011;24840;47.508;19.376;2024-03-25T08:14:41;4.25;;;0.90;;
39094;SDS011;24840;47.508;19.376;2024-03-25T08:17:08;1.75;;;0.60;;
39094;SDS011;24840;47.508;19.376;2024-03-25T08:19:34;1.83;;;1.15;;
39094;SDS011;24840;47.508;19.376;2024-03-25T08:22:00;2.45;;;0.85;;
39094;SDS011;24840;47.508;19.376;2024-03-25T08:24:26;1.83;;;0.93;;
39094;SDS011;24840;47.508;19.376;2024-03-25T08:26:52;2.78;;;1.42;;
39094;SDS011;24840;47.508;19.376;2024-03-25T08:29:18;2.00;;;1.20;;
39094;SDS011;24840;47.508;19.376;2024-03-25T08:31:44;5.03;;;1.20;;
39094;SDS011;24840;47.508;19.376;2024-03-25T08:34:10;2.15;;;0.93;;
39094;SDS011;24840;47.508;19.376;2024-03-25T08:36:36;1.05;;;0.70;;
39094;SDS011;24840;47.508;19.376;2024-03-25T08:39:02;3.85;;;0.93;;
39094;SDS011;24840;47.508;19.376;2024-03-25T08:41:29;3.28;;;1.02;;
39094;SDS011;24840;47.508;19.376;2024-03-25T08:43:55;3.90;;;1.00;;
39094;SDS011;24840;47.508;19.376;2024-03-25T08:46:21;3.42;;;1.00;;
39094;SDS011;24840;47.508;19.376;2024-03-25T08:48:47;2.65;;;0.93;;
39094;SDS011;24840;47.508;19.376;2024-03-25T08:51:13;1.98;;;0.77;;
39094;SDS011;24840;47.508;19.376;2024-03-25T08:53:39;1.20;;;0.90;;
39094;SDS011;24840;47.508;19.376;2024-03-25T08:56:05;1.20;;;0.68;;
39094;SDS011;24840;47.508;19.376;2024-03-25T08:58:31;2.33;;;0.77;;
39094;SDS011;24840;47.508;19.376;2024-03-25T09:00:57;1.20;;;0.73;;
39094;SDS011;24840;47.508;19.376;2024-03-25T09:03:23;1.25;;;0.55;;
39094;SDS011;24840;47.508;19.376;2024-03-25T09:05:49;1.67;;;0.77;;
39094;SDS011;24840;47.508;19.376;2024-03-25T09:08:15;1.98;;;0.95;;
39094;SDS011;24840;47.508;19.376;2024-03-25T09:10:43;1.00;;;0.70;;
39094;SDS011;24840;47.508;19.376;2024-03-25T09:13:27;1.38;;;0.63;;
39094;SDS011;24840;47.508;19.376;2024-03-25T09:15:53;1.20;;;0.88;;
39094;SDS011;24840;47.508;19.376;2024-03-25T09:18:20;1.92;;;1.08;;
39094;SDS011;24840;47.508;19.376;2024-03-25T09:20:46;1.85;;;0.60;;
39094;SDS011;24840;47.508;19.376;2024-03-25T09:23:13;1.73;;;0.60;;
39094;SDS011;24840;47.508;19.376;2024-03-25T09:25:39;1.73;;;0.60;;
39094;SDS011;24840;47.508;19.376;2024-03-25T09:28:05;3.13;;;0.65;;
39094;SDS011;24840;47.508;19.376;2024-03-25T09:30:31;2.05;;;0.80;;
39094;SDS011;24840;47.508;19.376;2024-03-25T09:32:57;3.60;;;0.98;;
39094;SDS011;24840;47.508;19.376;2024-03-25T09:35:23;2.88;;;0.95;;
39094;SDS011;24840;47.508;19.376;2024-03-25T09:37:49;0.60;;;0.30;;
39094;SDS011;24840;47.508;19.376;2024-03-25T09:40:15;3.65;;;0.70;;
39094;SDS011;24840;47.508;19.376;2024-03-25T09:42:47;1.25;;;0.70;;
39094;SDS011;24840;47.508;19.376;2024-03-25T09:45:15;1.67;;;0.65;;
39094;SDS011;24840;47.508;19.376;2024-03-25T09:47:44;1.48;;;0.50;;
39094;SDS011;24840;47.508;19.376;2024-03-25T09:50:11;1.15;;;0.70;;
39094;SDS011;24840;47.508;19.376;2024-03-25T09:52:38;2.45;;;0.60;;
39094;SDS011;24840;47.508;19.376;2024-03-25T09:55:04;1.67;;;0.73;;
39094;SDS011;24840;47.508;19.376;2024-03-25T09:57:30;1.40;;;0.75;;
39094;SDS011;24840;47.508;19.376;2024-03-25T09:59:56;2.63;;;0.70;;
39094;SDS011;24840;47.508;19.376;2024-03-25T10:02:23;1.42;;;0.50;;
39094;SDS011;24840;47.508;19.376;2024-03-25T10:04:51;3.08;;;0.82;;
39094;SDS011;24840;47.508;19.376;2024-03-25T10:07:24;6.43;;;1.30;;
39094;SDS011;24840;47.508;19.376;2024-03-25T10:09:53;1.38;;;0.90;;
39094;SDS011;24840;47.508;19.376;2024-03-25T10:12:19;4.15;;;1.10;;
39094;SDS011;24840;47.508;19.376;2024-03-25T10:14:45;2.65;;;0.95;;
39094;SDS011;24840;47.508;19.376;2024-03-25T10:17:11;2.10;;;1.27;;
39094;SDS011;24840;47.508;19.376;2024-03-25T10:19:37;0.95;;;0.73;;
39094;SDS011;24840;47.508;19.376;2024-03-25T10:24:39;11.77;;;1.42;;
39094;SDS011;24840;47.508;19.376;2024-03-25T10:27:05;7.80;;;0.80;;
39094;SDS011;24840;47.508;19.376;2024-03-25T10:29:31;0.82;;;0.65;;
39094;SDS011;24840;47.508;19.376;2024-03-25T10:32:00;2.28;;;0.40;;
39094;SDS011;24840;47.508;19.376;2024-03-25T10:34:26;1.23;;;0.52;;
39094;SDS011;24840;47.508;19.376;2024-03-25T10:36:53;1.23;;;0.75;;
39094;SDS011;24840;47.508;19.376;2024-03-25T10:39:23;0.90;;;0.70;;
39094;SDS011;24840;47.508;19.376;2024-03-25T10:41:52;1.48;;;0.60;;
39094;SDS011;24840;47.508;19.376;2024-03-25T10:44:20;1.80;;;0.35;;
39094;SDS011;24840;47.508;19.376;2024-03-25T10:46:46;1.55;;;0.80;;
39094;SDS011;24840;47.508;19.376;2024-03-25T10:49:16;1.05;;;0.60;;
39094;SDS011;24840;47.508;19.376;2024-03-25T10:51:48;0.80;;;0.73;;
39094;SDS011;24840;47.508;19.376;2024-03-25T10:54:15;0.75;;;0.40;;
39094;SDS011;24840;47.508;19.376;2024-03-25T10:56:42;1.08;;;0.88;;
39094;SDS011;24840;47.508;19.376;2024-03-25T10:59:08;0.65;;;0.50;;
39094;SDS011;24840;47.508;19.376;2024-03-25T11:01:36;3.33;;;1.10;;
39094;SDS011;24840;47.508;19.376;2024-03-25T11:04:02;6.68;;;0.60;;
39094;SDS011;24840;47.508;19.376;2024-03-25T11:06:31;1.98;;;0.75;;
39094;SDS011;24840;47.508;19.376;2024-03-25T11:08:57;0.88;;;0.40;;
39094;SDS011;24840;47.508;19.376;2024-03-25T11:11:25;0.85;;;0.40;;
39094;SDS011;24840;47.508;19.376;2024-03-25T11:13:56;3.22;;;0.70;;
39094;SDS011;24840;47.508;19.376;2024-03-25T11:16:31;0.95;;;0.50;;
39094;SDS011;24840;47.508;19.376;2024-03-25T11:19:02;1.90;;;0.80;;
39094;SDS011;24840;47.508;19.376;2024-03-25T11:21:28;1.23;;;0.60;;
39094;SDS011;24840;47.508;19.376;2024-03-25T11:23:54;4.15;;;0.60;;
39094;SDS011;24840;47.508;19.376;2024-03-25T11:26:29;0.98;;;0.60;;
39094;SDS011;24840;47.508;19.376;2024-03-25T11:29:00;0.90;;;0.50;;
39094;SDS011;24840;47.508;19.376;2024-03-25T11:31:26;3.83;;;1.00;;
39094;SDS011;24840;47.508;19.376;2024-03-25T11:33:52;2.25;;;0.80;;
39094;SDS011;24840;47.508;19.376;2024-03-25T11:36:18;0.80;;;0.50;;
39094;SDS011;24840;47.508;19.376;2024-03-25T11:38:45;0.82;;;0.47;;
39094;SDS011;24840;47.508;19.376;2024-03-25T11:41:12;0.57;;;0.30;;
39094;SDS011;24840;47.508;19.376;2024-03-25T11:43:38;1.15;;;0.30;;
39094;SDS011;24840;47.508;19.376;2024-03-25T11:46:05;0.93;;;0.40;;
39094;SDS011;24840;47.508;19.376;2024-03-25T11:48:31;1.67;;;0.57;;
39094;SDS011;24840;47.508;19.376;2024-03-25T11:50:58;0.50;;;0.30;;
39094;SDS011;24840;47.508;19.376;2024-03-25T11:53:25;4.15;;;0.65;;
39094;SDS011;24840;47.508;19.376;2024-03-25T11:55:52;5.57;;;0.60;;
39094;SDS011;24840;47.508;19.376;2024-03-25T11:58:18;2.05;;;0.28;;
39094;SDS011;24840;47.508;19.376;2024-03-25T12:00:45;0.75;;;0.40;;
39094;SDS011;24840;47.508;19.376;2024-03-25T12:03:14;4.15;;;0.88;;
39094;SDS011;24840;47.508;19.376;2024-03-25T12:05:40;3.30;;;0.65;;
39094;SDS011;24840;47.508;19.376;2024-03-25T12:08:09;1.65;;;0.80;;
39094;SDS011;24840;47.508;19.376;2024-03-25T12:10:37;6.38;;;4.38;;
39094;SDS011;24840;47.508;19.376;2024-03-25T12:13:21;1.52;;;0.77;;
39094;SDS011;24840;47.508;19.376;2024-03-25T12:15:49;2.05;;;1.38;;
39094;SDS011;24840;47.508;19.376;2024-03-25T12:18:15;17.27;;;1.35;;
39094;SDS011;24840;47.508;19.376;2024-03-25T12:20:41;21.00;;;9.60;;
39094;SDS011;24840;47.508;19.376;2024-03-25T12:23:07;57.55;;;10.60;;
39094;SDS011;24840;47.508;19.376;2024-03-25T12:25:33;73.85;;;13.93;;
39094;SDS011;24840;47.508;19.376;2024-03-25T12:28:00;6.07;;;1.88;;
39094;SDS011;24840;47.508;19.376;2024-03-25T12:30:26;5.55;;;2.03;;
39094;SDS011;24840;47.508;19.376;2024-03-25T12:32:52;11.60;;;1.75;;
39094;SDS011;24840;47.508;19.376;2024-03-25T12:35:18;11.98;;;1.83;;
39094;SDS011;24840;47.508;19.376;2024-03-25T12:37:45;1.55;;;0.82;;
39094;SDS011;24840;47.508;19.376;2024-03-25T12:40:25;9.65;;;3.95;;
39094;SDS011;24840;47.508;19.376;2024-03-25T12:42:51;11.95;;;6.43;;
39094;SDS011;24840;47.508;19.376;2024-03-25T12:45:18;1.60;;;0.70;;
39094;SDS011;24840;47.508;19.376;2024-03-25T12:47:44;3.10;;;1.70;;
39094;SDS011;24840;47.508;19.376;2024-03-25T12:50:10;3.05;;;1.38;;
39094;SDS011;24840;47.508;19.376;2024-03-25T12:52:36;4.82;;;2.90;;
39094;SDS011;24840;47.508;19.376;2024-03-25T12:55:02;1.83;;;0.60;;
39094;SDS011;24840;47.508;19.376;2024-03-25T12:57:28;0.95;;;0.50;;
39094;SDS011;24840;47.508;19.376;2024-03-25T12:59:54;0.85;;;0.50;;
39094;SDS011;24840;47.508;19.376;2024-03-25T13:02:20;2.35;;;1.15;;
39094;SDS011;24840;47.508;19.376;2024-03-25T13:04:46;2.63;;;0.70;;
39094;SDS011;24840;47.508;19.376;2024-03-25T13:07:12;0.65;;;0.47;;
39094;SDS011;24840;47.508;19.376;2024-03-25T13:09:38;0.70;;;0.43;;
39094;SDS011;24840;47.508;19.376;2024-03-25T13:12:05;4.93;;;3.33;;
39094;SDS011;24840;47.508;19.376;2024-03-25T13:14:31;4.50;;;1.05;;
39094;SDS011;24840;47.508;19.376;2024-03-25T13:17:00;1.42;;;0.50;;
39094;SDS011;24840;47.508;19.376;2024-03-25T13:19:26;0.90;;;0.50;;
39094;SDS011;24840;47.508;19.376;2024-03-25T13:21:53;2.25;;;0.60;;
39094;SDS011;24840;47.508;19.376;2024-03-25T13:24:19;4.50;;;1.52;;
39094;SDS011;24840;47.508;19.376;2024-03-25T13:26:45;1.80;;;1.38;;
39094;SDS011;24840;47.508;19.376;2024-03-25T13:29:11;1.30;;;0.50;;
39094;SDS011;24840;47.508;19.376;2024-03-25T13:31:37;1.83;;;0.95;;
39094;SDS011;24840;47.508;19.376;2024-03-25T13:34:03;3.20;;;1.48;;
39094;SDS011;24840;47.508;19.376;2024-03-25T13:36:31;1.10;;;0.43;;
39094;SDS011;24840;47.508;19.376;2024-03-25T13:38:57;1.88;;;0.55;;
39094;SDS011;24840;47.508;19.376;2024-03-25T13:41:23;1.88;;;0.50;;
39094;SDS011;24840;47.508;19.376;2024-03-25T13:43:49;1.15;;;0.43;;
39094;SDS011;24840;47.508;19.376;2024-03-25T13:46:15;1.67;;;0.63;;
39094;SDS011;24840;47.508;19.376;2024-03-25T13:48:42;1.17;;;0.57;;
39094;SDS011;24840;47.508;19.376;2024-03-25T13:51:08;1.92;;;0.95;;
39094;SDS011;24840;47.508;19.376;2024-03-25T13:53:34;1.20;;;0.50;;
39094;SDS011;24840;47.508;19.376;2024-03-25T13:56:00;2.15;;;0.63;;
39094;SDS011;24840;47.508;19.376;2024-03-25T13:58:26;1.83;;;0.90;;
39094;SDS011;24840;47.508;19.376;2024-03-25T14:00:52;2.60;;;0.82;;
39094;SDS011;24840;47.508;19.376;2024-03-25T14:03:19;2.90;;;1.30;;
39094;SDS011;24840;47.508;19.376;2024-03-25T14:05:45;2.17;;;0.90;;
39094;SDS011;24840;47.508;19.376;2024-03-25T14:08:11;0.82;;;0.50;;
39094;SDS011;24840;47.508;19.376;2024-03-25T14:10:38;0.98;;;0.50;;
39094;SDS011;24840;47.508;19.376;2024-03-25T14:13:04;1.25;;;0.68;;
39094;SDS011;24840;47.508;19.376;2024-03-25T14:15:33;2.67;;;0.43;;
39094;SDS011;24840;47.508;19.376;2024-03-25T14:17:59;1.58;;;0.55;;
39094;SDS011;24840;47.508;19.376;2024-03-25T14:20:25;1.05;;;0.40;;
39094;SDS011;24840;47.508;19.376;2024-03-25T14:22:51;1.20;;;0.80;;
39094;SDS011;24840;47.508;19.376;2024-03-25T14:25:17;1.33;;;0.45;;
39094;SDS011;24840;47.508;19.376;2024-03-25T14:27:44;2.55;;;0.60;;
39094;SDS011;24840;47.508;19.376;2024-03-25T14:30:10;1.35;;;0.50;;
39094;SDS011;24840;47.508;19.376;2024-03-25T14:32:39;2.20;;;0.75;;